Time;durP1;ratioP1;P1;durP2;ratioP2;P2;SDS_P1;SDS_P2;PMS_P1;PMS_P2;Temp;Humidity;BMP_temperature;BMP_pressure;BME280_temperature;BME280_humidity;BME280_pressure;Samples;Min_cycle;Max_cycle;Signal;HPM_P1;HPM_P2
2024/03/20 00:02:01;;;;;;;18.53;14.33;;;10.40;99.90;;;;;;5073497;28;20489;-62
2024/03/20 00:04:28;;;;;;;16.63;13.13;;;10.40;99.90;;;;;;5073761;28;20933;-62
2024/03/20 00:06:55;;;;;;;22.97;15.30;;;10.40;99.90;;;;;;5073748;28;20446;-63
2024/03/20 00:09:24;;;;;;;18.90;14.17;;;10.50;99.90;;;;;;5074371;28;20441;-61
2024/03/20 00:11:51;;;;;;;22.20;15.37;;;10.50;99.90;;;;;;5074129;28;20462;-61
2024/03/20 00:14:18;;;;;;;25.60;14.60;;;10.50;99.90;;;;;;5073879;28;20444;-62
2024/03/20 00:16:45;;;;;;;22.83;15.17;;;10.50;99.90;;;;;;5073610;28;20442;-62
2024/03/20 00:19:12;;;;;;;19.07;12.63;;;10.60;99.90;;;;;;5073600;28;20487;-63
2024/03/20 00:21:39;;;;;;;18.90;14.70;;;10.60;99.90;;;;;;5073581;28;20481;-62
2024/03/20 00:24:06;;;;;;;21.67;13.70;;;10.60;99.90;;;;;;5073527;28;20781;-61
2024/03/20 00:26:34;;;;;;;20.90;13.43;;;10.70;99.90;;;;;;5073869;28;20464;-62
2024/03/20 00:29:01;;;;;;;20.90;12.80;;;10.70;99.90;;;;;;5075846;28;20435;-62
2024/03/20 00:31:27;;;;;;;17.93;13.33;;;10.70;99.90;;;;;;5078240;28;20462;-63
2024/03/20 00:33:54;;;;;;;18.80;13.20;;;10.70;99.90;;;;;;5084207;28;20818;-62
2024/03/20 00:36:22;;;;;;;19.40;14.53;;;10.70;99.90;;;;;;5085832;28;20450;-61
2024/03/20 00:38:48;;;;;;;19.47;12.90;;;10.70;99.90;;;;;;5080982;28;20486;-62
2024/03/20 00:41:15;;;;;;;21.83;14.70;;;10.80;99.90;;;;;;5078267;28;20462;-61
2024/03/20 00:43:43;;;;;;;24.57;14.60;;;10.80;99.90;;;;;;5078491;28;20444;-62
2024/03/20 00:46:10;;;;;;;23.23;14.83;;;10.80;99.90;;;;;;5077844;28;20953;-61
2024/03/20 00:48:36;;;;;;;21.37;14.60;;;10.80;99.90;;;;;;5078460;28;20442;-62
2024/03/20 00:51:04;;;;;;;20.10;14.00;;;10.80;99.90;;;;;;5082593;28;20470;-61
2024/03/20 00:53:30;;;;;;;22.50;15.07;;;10.80;99.90;;;;;;5084590;28;20442;-62
2024/03/20 00:55:57;;;;;;;24.57;15.00;;;10.90;99.90;;;;;;5087775;28;20450;-62
2024/03/20 00:58:24;;;;;;;17.83;13.77;;;10.80;99.90;;;;;;5089824;28;20475;-62
2024/03/20 01:00:52;;;;;;;20.80;14.60;;;10.90;99.90;;;;;;5086979;28;20442;-62
2024/03/20 01:03:19;;;;;;;20.63;13.80;;;10.90;99.90;;;;;;5081500;28;20430;-63
2024/03/20 01:05:46;;;;;;;18.77;13.37;;;10.90;99.90;;;;;;5079118;28;20453;-62
2024/03/20 01:08:14;;;;;;;21.50;13.23;;;10.80;99.90;;;;;;5079139;28;20439;-61
2024/03/20 01:10:41;;;;;;;18.80;12.93;;;10.90;99.90;;;;;;5080548;28;20533;-63
2024/03/20 01:13:08;;;;;;;19.00;12.77;;;10.80;99.90;;;;;;5079582;28;20443;-62
2024/03/20 01:15:35;;;;;;;23.53;15.87;;;10.80;99.90;;;;;;5078503;28;20450;-62
2024/03/20 01:18:04;;;;;;;22.53;15.13;;;10.80;99.90;;;;;;5077948;28;20491;-61
2024/03/20 01:20:31;;;;;;;20.07;14.80;;;10.80;99.90;;;;;;5077624;28;20925;-62
2024/03/20 01:22:58;;;;;;;23.17;14.43;;;10.80;99.90;;;;;;5077378;28;20474;-62
2024/03/20 01:25:25;;;;;;;23.93;14.70;;;10.80;99.90;;;;;;5077458;28;20446;-62
2024/03/20 01:27:52;;;;;;;19.27;13.80;;;10.80;99.90;;;;;;5076608;28;20439;-62
2024/03/20 01:30:19;;;;;;;20.53;14.20;;;10.80;99.90;;;;;;5076732;28;20450;-62
2024/03/20 01:32:45;;;;;;;22.50;13.13;;;10.70;99.90;;;;;;5076766;28;20462;-62
2024/03/20 01:35:14;;;;;;;17.77;13.17;;;10.70;99.90;;;;;;5076678;28;20435;-62
2024/03/20 01:37:40;;;;;;;21.40;15.07;;;10.70;99.90;;;;;;5076228;28;20496;-62
2024/03/20 01:40:09;;;;;;;21.97;13.87;;;10.70;99.90;;;;;;5075448;28;20435;-61
2024/03/20 01:42:35;;;;;;;19.50;14.20;;;10.70;99.90;;;;;;5076341;28;20553;-62
2024/03/20 01:45:13;;;;;;;20.20;14.17;;;10.70;99.90;;;;;;5076433;28;20533;-61
2024/03/20 01:47:41;;;;;;;21.23;13.97;;;10.70;99.90;;;;;;5076351;28;20512;-62
2024/03/20 01:50:09;;;;;;;19.73;14.27;;;10.70;99.90;;;;;;5076260;28;20789;-62
2024/03/20 01:52:48;;;;;;;19.97;13.73;;;10.70;99.90;;;;;;5076220;28;20531;-63
2024/03/20 01:55:15;;;;;;;20.07;13.57;;;10.70;99.90;;;;;;5076419;28;20804;-62
2024/03/20 01:57:41;;;;;;;18.07;13.37;;;10.70;99.90;;;;;;5076820;28;20443;-62
2024/03/20 02:00:12;;;;;;;22.60;14.37;;;10.70;99.90;;;;;;5077159;28;20445;-61
2024/03/20 02:02:39;;;;;;;20.30;13.90;;;10.70;99.90;;;;;;5076573;28;20553;-63
2024/03/20 02:05:06;;;;;;;21.27;13.90;;;10.60;99.90;;;;;;5075833;28;20452;-62
2024/03/20 02:07:33;;;;;;;20.13;14.80;;;10.60;99.90;;;;;;5076208;28;20440;-62
2024/03/20 02:10:01;;;;;;;25.23;14.87;;;10.60;99.90;;;;;;5076492;28;20804;-62
2024/03/20 02:12:28;;;;;;;27.40;14.33;;;10.60;99.90;;;;;;5075899;28;20466;-61
2024/03/20 02:14:54;;;;;;;23.97;14.80;;;10.50;99.90;;;;;;5076359;28;20444;-61
2024/03/20 02:17:21;;;;;;;26.67;15.77;;;10.50;99.90;;;;;;5076383;28;20443;-62
2024/03/20 02:19:48;;;;;;;20.53;12.73;;;10.50;99.90;;;;;;5075696;28;20485;-61
2024/03/20 02:22:16;;;;;;;20.70;14.90;;;10.50;99.90;;;;;;5075865;28;20470;-61
2024/03/20 02:24:43;;;;;;;18.90;13.20;;;10.50;99.90;;;;;;5075622;28;20451;-62
2024/03/20 02:27:09;;;;;;;18.47;13.47;;;10.40;99.90;;;;;;5075505;28;20435;-62
2024/03/20 02:29:36;;;;;;;23.43;15.83;;;10.40;99.90;;;;;;5075484;28;20428;-62
2024/03/20 02:32:04;;;;;;;20.13;13.70;;;10.40;99.90;;;;;;5075546;28;20469;-63
2024/03/20 02:34:31;;;;;;;20.03;13.07;;;10.40;99.90;;;;;;5075682;28;20438;-62
2024/03/20 02:36:57;;;;;;;21.23;14.23;;;10.30;99.90;;;;;;5075715;28;20442;-62
2024/03/20 02:39:26;;;;;;;22.03;14.63;;;10.30;99.90;;;;;;5075427;28;20477;-62
2024/03/20 02:41:52;;;;;;;20.20;13.43;;;10.40;99.90;;;;;;5075081;28;20983;-62
2024/03/20 02:44:19;;;;;;;18.87;13.20;;;10.30;99.90;;;;;;5075463;28;20523;-62
2024/03/20 02:46:45;;;;;;;17.17;12.00;;;10.30;99.90;;;;;;5075540;28;20442;-62
2024/03/20 02:49:12;;;;;;;21.40;14.60;;;10.30;99.90;;;;;;5075540;28;20434;-62
2024/03/20 02:51:39;;;;;;;18.10;12.53;;;10.30;99.90;;;;;;5073945;28;20992;-62
2024/03/20 02:54:05;;;;;;;20.33;13.90;;;10.30;99.90;;;;;;5074524;28;20445;-62
2024/03/20 02:56:34;;;;;;;20.27;14.60;;;10.30;99.90;;;;;;5075083;28;20809;-62
2024/03/20 02:59:00;;;;;;;19.20;13.73;;;10.30;99.90;;;;;;5075652;28;20479;-62
2024/03/20 03:01:27;;;;;;;21.47;13.27;;;10.30;99.90;;;;;;5075121;28;20992;-62
2024/03/20 03:03:54;;;;;;;22.40;14.67;;;10.20;99.90;;;;;;5074617;28;20924;-62
2024/03/20 03:06:21;;;;;;;18.23;14.00;;;10.20;99.90;;;;;;5074659;28;20445;-62
2024/03/20 03:08:47;;;;;;;18.80;13.27;;;10.20;99.90;;;;;;5074865;28;20442;-62
2024/03/20 03:11:15;;;;;;;19.70;13.63;;;10.20;99.90;;;;;;5074358;28;20470;-63
2024/03/20 03:13:44;;;;;;;24.63;14.00;;;10.20;99.90;;;;;;5078359;28;20518;-61
2024/03/20 03:16:12;;;;;;;20.90;14.83;;;10.10;99.90;;;;;;5084023;28;20455;-62
2024/03/20 03:18:39;;;;;;;18.57;12.77;;;10.10;99.90;;;;;;5078222;28;20478;-63
2024/03/20 03:21:09;;;;;;;22.07;14.63;;;10.00;99.90;;;;;;5076201;28;20473;-62
2024/03/20 03:23:35;;;;;;;17.70;13.37;;;10.00;99.90;;;;;;5076094;28;20446;-61
2024/03/20 03:26:02;;;;;;;22.93;14.10;;;9.90;99.90;;;;;;5075724;28;20449;-62
2024/03/20 03:28:28;;;;;;;20.13;12.90;;;9.90;99.90;;;;;;5076084;28;20202;-62
2024/03/20 03:30:56;;;;;;;18.73;13.77;;;10.00;99.90;;;;;;5074472;28;20453;-62
2024/03/20 03:33:23;;;;;;;21.13;13.47;;;10.00;99.90;;;;;;5076030;28;20450;-62
2024/03/20 03:35:50;;;;;;;18.63;13.73;;;10.00;99.90;;;;;;5074975;28;20454;-63
2024/03/20 03:38:17;;;;;;;19.97;13.27;;;10.00;99.90;;;;;;5076173;28;20442;-62
2024/03/20 03:40:43;;;;;;;17.47;13.77;;;10.00;99.90;;;;;;5076221;28;20940;-63
2024/03/20 03:43:10;;;;;;;19.40;13.03;;;10.00;99.90;;;;;;5076955;28;20442;-61
2024/03/20 03:45:38;;;;;;;22.27;15.37;;;10.00;99.90;;;;;;5076370;28;20446;-62
2024/03/20 03:48:07;;;;;;;18.20;13.50;;;10.00;99.90;;;;;;5075035;28;20451;-62
2024/03/20 03:50:34;;;;;;;21.43;15.03;;;10.00;99.90;;;;;;5075299;28;20440;-61
2024/03/20 03:53:01;;;;;;;18.27;13.60;;;10.00;99.90;;;;;;5075249;28;20468;-62
2024/03/20 03:55:27;;;;;;;21.90;13.50;;;10.00;99.90;;;;;;5074661;28;20813;-62
2024/03/20 03:57:54;;;;;;;19.30;14.13;;;10.00;99.90;;;;;;5075911;28;20445;-62
2024/03/20 04:00:21;;;;;;;20.50;15.20;;;10.00;99.90;;;;;;5073758;28;20485;-62
2024/03/20 04:02:47;;;;;;;16.60;12.40;;;10.00;99.90;;;;;;5073380;28;20473;-62
2024/03/20 04:05:16;;;;;;;18.67;12.73;;;10.00;99.90;;;;;;5074036;28;20454;-61
2024/03/20 04:07:43;;;;;;;17.10;12.80;;;10.00;99.90;;;;;;5074263;28;20443;-62
2024/03/20 04:13:24;;;;;;;16.83;11.90;;;10.00;99.90;;;;;;5101746;28;20560;-63
2024/03/20 04:15:52;;;;;;;19.47;13.53;;;10.00;99.90;;;;;;5098081;28;20457;-62
2024/03/20 04:18:19;;;;;;;19.70;13.73;;;10.00;99.90;;;;;;5094481;28;20457;-63
2024/03/20 04:20:46;;;;;;;20.63;14.87;;;10.00;99.90;;;;;;5093300;28;20449;-63
2024/03/20 04:23:13;;;;;;;16.73;13.10;;;10.00;99.90;;;;;;5093761;28;20438;-62
2024/03/20 04:25:40;;;;;;;18.53;12.90;;;10.10;99.90;;;;;;5092745;28;20925;-63
2024/03/20 04:28:07;;;;;;;20.17;13.10;;;10.10;99.90;;;;;;5092670;28;20496;-63
2024/03/20 04:30:35;;;;;;;18.00;13.20;;;10.10;99.90;;;;;;5092899;28;20447;-62
2024/03/20 04:33:02;;;;;;;18.47;11.83;;;10.10;99.90;;;;;;5091771;28;20474;-62
2024/03/20 04:35:29;;;;;;;20.53;13.13;;;10.10;99.90;;;;;;5091979;28;20442;-63
2024/03/20 04:37:55;;;;;;;20.70;13.20;;;10.10;99.90;;;;;;5091521;28;20443;-62
2024/03/20 04:40:22;;;;;;;17.30;13.00;;;10.10;99.90;;;;;;5091724;28;20443;-63
2024/03/20 04:42:49;;;;;;;18.43;13.87;;;10.10;99.90;;;;;;5091233;28;20549;-63
2024/03/20 04:45:16;;;;;;;22.60;13.90;;;10.10;99.90;;;;;;5092600;28;20465;-62
2024/03/20 04:47:44;;;;;;;18.87;12.33;;;10.10;99.90;;;;;;5091263;28;20450;-63
2024/03/20 04:50:12;;;;;;;20.20;12.93;;;10.10;99.90;;;;;;5091272;28;20808;-62
2024/03/20 04:52:39;;;;;;;19.20;13.23;;;10.10;99.90;;;;;;5097470;28;20481;-63
2024/03/20 04:55:06;;;;;;;20.83;14.07;;;10.20;99.90;;;;;;5092692;28;20805;-62
2024/03/20 04:57:33;;;;;;;24.10;14.07;;;10.20;99.90;;;;;;5091450;28;20459;-62
2024/03/20 05:00:00;;;;;;;20.73;13.40;;;10.20;99.90;;;;;;5095177;28;20454;-63
2024/03/20 05:02:26;;;;;;;22.90;15.50;;;10.20;99.90;;;;;;5095537;28;20462;-62
2024/03/20 05:04:55;;;;;;;19.73;13.60;;;10.20;99.90;;;;;;5091032;28;20450;-62
2024/03/20 05:07:22;;;;;;;23.83;13.60;;;10.20;99.90;;;;;;5092749;28;20438;-62
2024/03/20 05:09:48;;;;;;;22.93;13.83;;;10.30;99.90;;;;;;5095979;28;20444;-63
2024/03/20 05:12:15;;;;;;;19.37;13.20;;;10.30;99.90;;;;;;5092082;28;20484;-61
2024/03/20 05:14:41;;;;;;;25.20;14.50;;;10.30;99.90;;;;;;5092808;28;20438;-62
2024/03/20 05:17:08;;;;;;;18.47;13.30;;;10.30;99.90;;;;;;5093863;28;20450;-62
2024/03/20 05:19:35;;;;;;;22.77;12.70;;;10.20;99.90;;;;;;5093988;28;20434;-62
2024/03/20 05:22:02;;;;;;;18.57;13.27;;;10.20;99.90;;;;;;5097572;28;20832;-62
2024/03/20 05:24:29;;;;;;;17.10;13.07;;;10.20;99.90;;;;;;5087283;28;20462;-62
2024/03/20 05:26:55;;;;;;;18.20;13.00;;;10.30;99.90;;;;;;5080764;28;20440;-62
2024/03/20 05:29:22;;;;;;;20.13;13.57;;;10.30;99.90;;;;;;5078134;28;20443;-62
2024/03/20 05:31:47;;;;;;;17.97;13.03;;;10.30;99.90;;;;;;5078589;28;20221;-62
2024/03/20 05:34:14;;;;;;;18.00;12.50;;;10.30;99.90;;;;;;5084460;28;20515;-64
2024/03/20 05:36:40;;;;;;;17.70;14.00;;;10.30;99.90;;;;;;5088483;28;20215;-62
2024/03/20 05:39:11;;;;;;;20.53;14.07;;;10.30;99.90;;;;;;5077590;28;20447;-61
2024/03/20 05:41:37;;;;;;;19.50;13.80;;;10.40;99.90;;;;;;5077771;28;20252;-62
2024/03/20 05:44:05;;;;;;;17.47;13.10;;;10.30;99.90;;;;;;5077986;28;20486;-61
2024/03/20 05:46:31;;;;;;;20.70;15.07;;;10.30;99.90;;;;;;5077363;28;20443;-61
2024/03/20 05:48:58;;;;;;;19.87;12.80;;;10.40;99.90;;;;;;5076845;28;20439;-61
2024/03/20 05:51:24;;;;;;;18.40;13.37;;;10.40;99.90;;;;;;5076617;28;20505;-61
2024/03/20 05:53:51;;;;;;;20.87;13.23;;;10.40;99.90;;;;;;5076457;28;20470;-61
2024/03/20 05:56:18;;;;;;;22.73;13.40;;;10.40;99.90;;;;;;5076639;28;20439;-62
2024/03/20 05:58:45;;;;;;;17.33;13.13;;;10.40;99.90;;;;;;5077030;28;20501;-62
2024/03/20 06:01:11;;;;;;;22.10;13.53;;;10.40;99.90;;;;;;5076833;28;20589;-62
2024/03/20 06:03:38;;;;;;;18.43;13.23;;;10.40;99.90;;;;;;5084099;28;20945;-61
2024/03/20 06:06:04;;;;;;;19.03;14.53;;;10.50;99.90;;;;;;5090436;28;20569;-62
2024/03/20 06:08:30;;;;;;;20.60;12.23;;;10.50;99.90;;;;;;5088201;28;20881;-60
2024/03/20 06:10:58;;;;;;;21.53;13.37;;;10.40;99.90;;;;;;5077835;28;20814;-60
2024/03/20 06:13:27;;;;;;;16.27;12.73;;;10.50;99.90;;;;;;5077568;28;20486;-62
2024/03/20 06:15:53;;;;;;;20.10;13.87;;;10.50;99.90;;;;;;5077074;28;20447;-61
2024/03/20 06:18:20;;;;;;;21.23;14.40;;;10.50;99.90;;;;;;5077157;28;20834;-59
2024/03/20 06:20:46;;;;;;;18.60;12.33;;;10.50;99.90;;;;;;5076407;28;21011;-61
2024/03/20 06:23:12;;;;;;;18.43;12.17;;;10.60;99.90;;;;;;5085642;28;20439;-61
2024/03/20 06:25:39;;;;;;;19.47;12.93;;;10.60;99.90;;;;;;5089485;28;20205;-63
2024/03/20 06:28:06;;;;;;;17.23;12.47;;;10.70;99.90;;;;;;5088774;28;20450;-62
2024/03/20 06:30:33;;;;;;;18.37;13.73;;;10.70;99.90;;;;;;5084068;28;20450;-64
2024/03/20 06:33:01;;;;;;;19.20;12.90;;;10.70;99.90;;;;;;5082447;28;20479;-62
2024/03/20 06:35:28;;;;;;;18.57;13.20;;;10.80;99.90;;;;;;5080988;28;20455;-64
2024/03/20 06:37:55;;;;;;;20.00;13.50;;;10.80;99.90;;;;;;5081180;28;20501;-65
2024/03/20 06:40:21;;;;;;;19.57;12.60;;;10.90;99.90;;;;;;5084579;28;20934;-64
2024/03/20 06:42:49;;;;;;;18.20;13.67;;;10.90;99.90;;;;;;5083921;28;20462;-63
2024/03/20 06:45:15;;;;;;;20.27;13.93;;;11.00;99.90;;;;;;5084215;28;20434;-64
2024/03/20 06:47:44;;;;;;;21.47;13.67;;;11.00;99.90;;;;;;5086393;28;20451;-66
2024/03/20 06:50:10;;;;;;;19.83;12.13;;;11.10;99.90;;;;;;5092361;28;20447;-64
2024/03/20 06:52:38;;;;;;;15.47;11.67;;;11.10;99.90;;;;;;5093361;28;20503;-64
2024/03/20 06:55:07;;;;;;;17.20;12.20;;;11.20;99.90;;;;;;5094208;28;20514;-64
2024/03/20 06:57:33;;;;;;;18.60;13.77;;;11.20;99.90;;;;;;5092922;28;20440;-63
2024/03/20 06:59:59;;;;;;;18.60;11.30;;;11.30;99.90;;;;;;5092489;28;20468;-63
2024/03/20 07:02:26;;;;;;;19.13;12.63;;;11.30;99.90;;;;;;5090754;28;20462;-62
2024/03/20 07:04:53;;;;;;;17.97;12.27;;;11.30;99.90;;;;;;5083523;28;20522;-63
2024/03/20 07:07:20;;;;;;;20.33;12.50;;;11.30;99.90;;;;;;5083320;28;20448;-64
2024/03/20 07:09:46;;;;;;;17.30;11.83;;;11.40;99.90;;;;;;5082402;28;20439;-65
2024/03/20 07:12:14;;;;;;;14.87;12.07;;;11.50;99.90;;;;;;5077743;28;20488;-64
2024/03/20 07:14:40;;;;;;;17.73;12.80;;;11.70;99.90;;;;;;5078025;28;20441;-64
2024/03/20 07:17:07;;;;;;;17.87;12.50;;;11.80;99.90;;;;;;5082601;28;20521;-62
2024/03/20 07:19:33;;;;;;;15.83;12.73;;;11.90;99.90;;;;;;5082197;28;20603;-64
2024/03/20 07:22:01;;;;;;;18.17;11.80;;;12.00;99.90;;;;;;5076321;28;20462;-64
2024/03/20 07:24:27;;;;;;;15.63;11.50;;;12.10;99.90;;;;;;5076683;28;20198;-62
2024/03/20 07:26:53;;;;;;;22.60;11.90;;;12.20;99.90;;;;;;5076412;28;20794;-64
2024/03/20 07:29:19;;;;;;;21.00;12.57;;;12.30;99.90;;;;;;5075878;28;20524;-64
2024/03/20 07:31:46;;;;;;;14.93;11.03;;;12.30;99.90;;;;;;5076673;28;20472;-63
2024/03/20 07:34:12;;;;;;;18.97;11.67;;;12.50;99.90;;;;;;5076517;28;20214;-64
2024/03/20 07:36:38;;;;;;;16.63;11.63;;;12.70;99.90;;;;;;5076053;28;20434;-62
2024/03/20 07:39:07;;;;;;;14.33;10.10;;;12.80;99.80;;;;;;5076532;28;20219;-63
2024/03/20 07:41:34;;;;;;;16.60;10.93;;;13.00;98.80;;;;;;5075368;28;20785;-63
2024/03/20 07:44:00;;;;;;;15.97;11.70;;;13.10;98.10;;;;;;5075445;28;20469;-62
2024/03/20 07:46:27;;;;;;;14.47;11.00;;;13.10;97.70;;;;;;5077100;28;20439;-64
2024/03/20 07:48:52;;;;;;;15.33;11.00;;;13.20;97.30;;;;;;5076752;28;20291;-63
2024/03/20 07:51:21;;;;;;;15.30;10.80;;;13.40;97.00;;;;;;5075445;28;20491;-63
2024/03/20 07:53:46;;;;;;;15.30;11.37;;;13.50;96.00;;;;;;5082471;28;20217;-63
2024/03/20 07:56:15;;;;;;;15.40;10.93;;;13.50;95.40;;;;;;5088235;28;20478;-63
2024/03/20 07:58:41;;;;;;;18.13;11.50;;;13.50;95.00;;;;;;5079888;28;20200;-63
2024/03/20 08:01:11;;;;;;;18.43;12.00;;;13.50;94.90;;;;;;5075438;28;20520;-65
2024/03/20 08:03:38;;;;;;;14.53;10.30;;;13.60;94.70;;;;;;5075125;28;20442;-63
2024/03/20 08:06:05;;;;;;;17.83;11.13;;;13.80;94.30;;;;;;5075244;28;20477;-63
2024/03/20 08:08:31;;;;;;;15.10;11.33;;;14.10;93.50;;;;;;5076136;28;20804;-63
2024/03/20 08:10:58;;;;;;;16.80;10.50;;;14.30;92.50;;;;;;5074832;28;20446;-64
2024/03/20 08:13:25;;;;;;;13.70;10.17;;;14.50;91.30;;;;;;5075373;28;20228;-63
2024/03/20 08:15:52;;;;;;;15.13;10.90;;;14.70;90.10;;;;;;5074810;28;20443;-64
2024/03/20 08:18:17;;;;;;;14.57;9.70;;;14.80;89.10;;;;;;5075094;28;20450;-63
2024/03/20 08:20:44;;;;;;;15.07;11.03;;;15.00;87.20;;;;;;5074799;28;20503;-63
2024/03/20 08:23:10;;;;;;;13.20;10.37;;;15.20;85.10;;;;;;5075736;28;20200;-63
2024/03/20 08:25:37;;;;;;;16.37;11.67;;;15.30;83.70;;;;;;5075136;28;20480;-63
2024/03/20 08:28:03;;;;;;;17.10;11.20;;;15.50;82.40;;;;;;5075422;28;20440;-63
2024/03/20 08:30:32;;;;;;;13.40;10.70;;;15.70;81.00;;;;;;5075964;28;20936;-63
2024/03/20 08:32:58;;;;;;;14.33;10.00;;;15.80;79.20;;;;;;5075355;28;20482;-61
2024/03/20 08:35:25;;;;;;;13.30;10.80;;;15.90;78.10;;;;;;5075867;28;20441;-65
2024/03/20 08:37:51;;;;;;;14.30;9.63;;;15.90;77.10;;;;;;5076471;28;20442;-64
2024/03/20 08:40:18;;;;;;;16.17;11.07;;;15.90;76.30;;;;;;5076664;28;20783;-63
2024/03/20 08:42:44;;;;;;;14.00;10.00;;;16.00;75.90;;;;;;5080313;28;20300;-64
2024/03/20 08:45:11;;;;;;;15.97;10.63;;;16.00;75.40;;;;;;5083211;28;20473;-63
2024/03/20 08:47:38;;;;;;;14.57;9.67;;;16.10;74.80;;;;;;5082164;28;20809;-64
2024/03/20 08:50:08;;;;;;;14.20;10.03;;;16.10;74.00;;;;;;5081718;28;20447;-63
2024/03/20 08:52:33;;;;;;;14.87;10.73;;;16.20;73.50;;;;;;5078241;28;20491;-64
2024/03/20 08:55:00;;;;;;;14.70;9.70;;;16.30;72.90;;;;;;5076582;28;20451;-64
2024/03/20 08:57:26;;;;;;;14.17;9.90;;;16.50;72.20;;;;;;5076480;28;20280;-63
2024/03/20 08:59:52;;;;;;;16.40;11.67;;;16.60;71.40;;;;;;5078368;28;20439;-63
2024/03/20 09:02:18;;;;;;;14.10;9.00;;;16.80;71.30;;;;;;5079271;28;20215;-63
2024/03/20 09:04:46;;;;;;;14.03;9.73;;;16.90;70.00;;;;;;5082570;28;20450;-63
2024/03/20 09:07:12;;;;;;;12.83;10.37;;;16.90;68.90;;;;;;5085265;28;20197;-62
2024/03/20 09:09:39;;;;;;;16.43;10.40;;;16.90;69.20;;;;;;5085988;28;20512;-64
2024/03/20 09:12:06;;;;;;;14.60;10.90;;;16.80;68.50;;;;;;5085330;28;20236;-59
2024/03/20 09:14:34;;;;;;;13.00;9.77;;;16.90;68.50;;;;;;5085743;28;20451;-63
2024/03/20 09:17:00;;;;;;;12.87;10.70;;;17.00;68.10;;;;;;5084342;28;20437;-63
2024/03/20 09:19:27;;;;;;;21.73;10.53;;;17.10;67.50;;;;;;5084802;28;20438;-64
2024/03/20 09:21:54;;;;;;;15.90;10.30;;;17.00;66.50;;;;;;5084478;28;20479;-64
2024/03/20 09:24:22;;;;;;;11.80;10.00;;;16.80;66.80;;;;;;5081214;28;20441;-64
2024/03/20 09:26:49;;;;;;;11.17;8.90;;;16.80;67.20;;;;;;5079008;28;20446;-62
2024/03/20 09:29:16;;;;;;;11.30;9.47;;;16.90;67.30;;;;;;5079301;28;20446;-63
2024/03/20 09:31:42;;;;;;;12.40;10.17;;;16.90;67.10;;;;;;5079452;28;20999;-63
2024/03/20 09:34:09;;;;;;;13.70;10.50;;;17.00;66.90;;;;;;5079852;28;20473;-63
2024/03/20 09:36:34;;;;;;;11.87;9.57;;;17.20;66.70;;;;;;5079745;28;20201;-64
2024/03/20 09:39:03;;;;;;;14.50;11.57;;;17.20;66.20;;;;;;5081120;28;20454;-63
2024/03/20 09:41:31;;;;;;;11.53;9.73;;;17.20;66.00;;;;;;5079129;28;20229;-63
2024/03/20 09:43:59;;;;;;;13.87;9.80;;;17.20;66.00;;;;;;5078391;28;20440;-64
2024/03/20 09:46:26;;;;;;;15.40;10.70;;;17.30;66.30;;;;;;5077809;28;20445;-64
2024/03/20 09:48:54;;;;;;;19.17;10.00;;;17.30;65.20;;;;;;5078435;28;20892;-64
2024/03/20 09:51:21;;;;;;;13.70;8.80;;;17.30;65.10;;;;;;5079062;28;20469;-63
2024/03/20 09:53:49;;;;;;;11.60;8.63;;;17.40;65.00;;;;;;5078006;28;20472;-64
2024/03/20 09:56:17;;;;;;;19.10;8.47;;;17.60;64.60;;;;;;5078072;28;20448;-63
2024/03/20 09:58:45;;;;;;;13.10;8.60;;;17.60;63.60;;;;;;5079313;28;20446;-63
2024/03/20 10:01:13;;;;;;;10.80;8.70;;;17.60;63.60;;;;;;5077530;28;20535;-63
2024/03/20 10:03:40;;;;;;;13.57;9.03;;;17.70;63.60;;;;;;5080161;28;20485;-64
2024/03/20 10:06:06;;;;;;;12.63;8.93;;;17.90;63.30;;;;;;5078077;28;20442;-63
2024/03/20 10:08:37;;;;;;;14.40;9.60;;;18.10;62.60;;;;;;5077377;28;20446;-64
2024/03/20 10:11:03;;;;;;;10.77;7.80;;;18.30;62.00;;;;;;5077409;28;20616;-62
2024/03/20 10:13:32;;;;;;;11.13;8.60;;;18.40;61.50;;;;;;5077912;28;20489;-63
2024/03/20 10:16:04;;;;;;;11.97;8.53;;;18.50;61.10;;;;;;5084543;28;20443;-64
2024/03/20 10:18:31;;;;;;;9.57;7.67;;;18.60;60.70;;;;;;5085758;28;20459;-62
2024/03/20 10:20:57;;;;;;;11.70;7.87;;;18.70;60.30;;;;;;5082018;28;20439;-63
2024/03/20 10:23:25;;;;;;;11.80;8.13;;;18.80;59.90;;;;;;5079187;28;20534;-64
2024/03/20 10:25:51;;;;;;;11.00;7.73;;;19.00;59.60;;;;;;5078642;28;20490;-62
2024/03/20 10:28:23;;;;;;;9.77;7.40;;;19.10;59.00;;;;;;5079128;28;20450;-63
2024/03/20 10:30:52;;;;;;;9.83;7.77;;;19.30;58.60;;;;;;5080877;28;20437;-62
2024/03/20 10:33:19;;;;;;;9.20;7.80;;;19.30;58.10;;;;;;5081616;28;21065;-64
2024/03/20 10:35:50;;;;;;;9.83;7.50;;;19.30;57.90;;;;;;5079594;28;20504;-64
2024/03/20 10:38:19;;;;;;;10.30;6.90;;;19.40;57.60;;;;;;5080432;28;20433;-63
2024/03/20 10:40:48;;;;;;;11.20;8.40;;;19.50;57.40;;;;;;5078632;28;20496;-63
2024/03/20 10:43:19;;;;;;;9.63;8.37;;;19.50;57.00;;;;;;5076913;28;20949;-63
2024/03/20 10:45:46;;;;;;;9.20;7.37;;;19.40;56.90;;;;;;5076887;28;20450;-64
2024/03/20 10:48:17;;;;;;;12.17;8.10;;;19.10;57.00;;;;;;5077561;28;20466;-63
2024/03/20 10:50:46;;;;;;;11.20;7.90;;;19.00;57.50;;;;;;5076611;28;20439;-63
2024/03/20 10:53:14;;;;;;;10.03;8.43;;;18.90;57.60;;;;;;5076806;28;20497;-63
2024/03/20 10:55:41;;;;;;;9.43;7.83;;;19.00;57.70;;;;;;5077280;28;20497;-62
2024/03/20 10:58:09;;;;;;;9.17;7.50;;;19.20;57.60;;;;;;5077962;28;20439;-64
2024/03/20 11:00:35;;;;;;;10.73;8.37;;;19.40;57.20;;;;;;5076652;28;20465;-63
2024/03/20 11:03:41;;;;;;;9.87;7.70;;;19.40;56.80;;;;;;5076963;28;20474;-63
2024/03/20 11:06:43;;;;;;;8.37;6.83;;;19.50;56.60;;;;;;5076138;28;20736;-62
2024/03/20 11:09:20;;;;;;;13.37;8.63;;;19.60;56.30;;;;;;5077116;28;20427;-63
2024/03/20 11:11:46;;;;;;;9.20;8.07;;;19.40;55.80;;;;;;5076921;28;20497;-63
2024/03/20 11:14:23;;;;;;;9.77;7.57;;;19.20;56.00;;;;;;5079387;28;20981;-64
2024/03/20 11:16:51;;;;;;;7.93;6.47;;;19.00;56.20;;;;;;5079086;28;20416;-64
2024/03/20 11:19:20;;;;;;;11.83;8.47;;;18.90;56.60;;;;;;5079039;28;20450;-63
2024/03/20 11:21:48;;;;;;;9.70;7.70;;;19.00;56.60;;;;;;5079103;28;20463;-64
2024/03/20 11:24:15;;;;;;;10.63;7.23;;;19.10;56.50;;;;;;5078807;28;20472;-63
2024/03/20 11:26:41;;;;;;;8.50;7.37;;;19.10;56.30;;;;;;5082717;28;20447;-64
2024/03/20 11:29:10;;;;;;;11.53;7.30;;;19.20;56.30;;;;;;5080508;28;20478;-64
2024/03/20 11:31:37;;;;;;;9.47;7.40;;;19.40;56.30;;;;;;5077851;28;20470;-64
2024/03/20 11:34:05;;;;;;;8.73;7.47;;;19.50;56.00;;;;;;5076932;28;20474;-63
2024/03/20 11:36:34;;;;;;;11.87;7.77;;;19.50;55.90;;;;;;5076367;28;20964;-63
2024/03/20 11:39:05;;;;;;;10.00;6.70;;;19.50;55.60;;;;;;5076929;28;20439;-63
2024/03/20 11:41:32;;;;;;;10.60;7.60;;;19.50;55.60;;;;;;5076594;28;20471;-63
2024/03/20 11:44:00;;;;;;;9.47;8.00;;;19.40;55.70;;;;;;5076922;28;20439;-64
2024/03/20 11:46:27;;;;;;;8.60;7.50;;;19.30;56.00;;;;;;5076561;28;20512;-64
2024/03/20 11:48:53;;;;;;;10.60;6.77;;;19.20;56.10;;;;;;5076917;28;20801;-64
2024/03/20 11:51:22;;;;;;;7.73;6.67;;;19.10;56.00;;;;;;5076434;28;20877;-63
2024/03/20 11:53:50;;;;;;;9.37;7.20;;;19.10;56.20;;;;;;5076695;28;20501;-64
2024/03/20 11:56:17;;;;;;;9.37;7.40;;;19.10;56.30;;;;;;5076096;28;20532;-64
2024/03/20 11:58:46;;;;;;;9.13;7.80;;;19.20;56.20;;;;;;5077111;28;20457;-64
2024/03/20 12:01:13;;;;;;;10.07;7.40;;;19.40;55.80;;;;;;5076365;28;20476;-64
2024/03/20 12:03:39;;;;;;;9.70;6.50;;;19.50;55.40;;;;;;5077122;28;20788;-64
2024/03/20 12:06:10;;;;;;;11.50;6.80;;;19.60;55.20;;;;;;5076648;28;20435;-64
2024/03/20 12:08:36;;;;;;;8.83;6.30;;;19.60;55.20;;;;;;5076964;28;20201;-63
2024/03/20 12:11:23;;;;;;;10.07;6.43;;;19.70;55.20;;;;;;5076276;28;20486;-64
2024/03/20 12:13:52;;;;;;;9.87;6.87;;;19.90;55.00;;;;;;5077881;28;20509;-64
2024/03/20 12:16:19;;;;;;;9.03;7.00;;;20.00;54.80;;;;;;5079037;28;20447;-63
2024/03/20 12:18:45;;;;;;;7.80;6.63;;;20.00;54.60;;;;;;5079341;28;20888;-63
2024/03/20 12:21:13;;;;;;;7.87;7.07;;;20.20;54.50;;;;;;5079019;28;20470;-64
2024/03/20 12:23:39;;;;;;;9.73;7.60;;;20.30;54.30;;;;;;5076070;28;20248;-63
2024/03/20 12:26:06;;;;;;;10.87;7.00;;;20.50;54.10;;;;;;5075531;28;21007;-63
2024/03/20 12:28:33;;;;;;;8.80;7.13;;;20.70;53.70;;;;;;5076369;28;20536;-65
2024/03/20 12:31:00;;;;;;;7.57;6.47;;;20.60;53.40;;;;;;5075799;28;20447;-63
2024/03/20 12:33:26;;;;;;;12.10;7.27;;;20.50;53.50;;;;;;5076611;28;20859;-64
2024/03/20 12:35:53;;;;;;;9.83;7.80;;;20.30;53.70;;;;;;5082158;28;20445;-64